sensor_id;sensor_type;location;lat;lon;timestamp;pressure;altitude;pressure_sealevel;temperature;humidity
73952;BME280;62304;47.662;18.324;2023-02-28T00:00:48;101367.31;;;1.78;61.52
73952;BME280;62304;47.662;18.324;2023-02-28T00:03:51;101366.22;;;1.79;61.86
73952;BME280;62304;47.662;18.324;2023-02-28T00:06:54;101379.06;;;1.78;62.04
73952;BME280;62304;47.662;18.324;2023-02-28T00:09:57;101374.19;;;1.75;62.60
73952;BME280;62304;47.662;18.324;2023-02-28T00:13:03;101382.25;;;1.90;62.08
73952;BME280;62304;47.662;18.324;2023-02-28T00:16:10;101380.56;;;1.94;61.58
73952;BME280;62304;47.662;18.324;2023-02-28T00:19:13;101384.06;;;2.00;61.81
73952;BME280;62304;47.662;18.324;2023-02-28T00:22:18;101385.47;;;1.97;61.75
73952;BME280;62304;47.662;18.324;2023-02-28T00:25:23;101387.81;;;1.80;62.91
73952;BME280;62304;47.662;18.324;2023-02-28T00:28:27;101389.19;;;1.78;62.97
73952;BME280;62304;47.662;18.324;2023-02-28T00:31:29;101392.13;;;1.86;62.85
73952;BME280;62304;47.662;18.324;2023-02-28T00:34:33;101394.59;;;1.88;62.10
73952;BME280;62304;47.662;18.324;2023-02-28T00:37:40;101395.16;;;1.85;63.13
73952;BME280;62304;47.662;18.324;2023-02-28T00:40:43;101400.13;;;1.78;63.11
73952;BME280;62304;47.662;18.324;2023-02-28T00:43:45;101402.59;;;1.79;62.94
73952;BME280;62304;47.662;18.324;2023-02-28T00:46:48;101406.41;;;1.78;63.64
73952;BME280;62304;47.662;18.324;2023-02-28T00:49:51;101401.12;;;1.58;64.02
73952;BME280;62304;47.662;18.324;2023-02-28T00:52:54;101402.59;;;1.79;63.15
73952;BME280;62304;47.662;18.324;2023-02-28T00:55:57;101400.69;;;1.75;63.77
73952;BME280;62304;47.662;18.324;2023-02-28T00:59:01;101403.63;;;1.83;63.51
73952;BME280;62304;47.662;18.324;2023-02-28T01:02:04;101404.13;;;1.90;63.33
73952;BME280;62304;47.662;18.324;2023-02-28T01:05:07;101409.09;;;1.83;63.90
73952;BME280;62304;47.662;18.324;2023-02-28T01:08:10;101412.91;;;1.87;63.97
73952;BME280;62304;47.662;18.324;2023-02-28T01:11:15;101409.25;;;1.97;63.74
73952;BME280;62304;47.662;18.324;2023-02-28T01:14:18;101419.69;;;1.95;63.20
73952;BME280;62304;47.662;18.324;2023-02-28T01:17:22;101407.81;;;2.04;63.48
73952;BME280;62304;47.662;18.324;2023-02-28T01:20:24;101411.38;;;2.05;63.68
73952;BME280;62304;47.662;18.324;2023-02-28T01:23:27;101418.84;;;1.94;64.48
73952;BME280;62304;47.662;18.324;2023-02-28T01:26:31;101423.25;;;1.95;63.77
73952;BME280;62304;47.662;18.324;2023-02-28T01:29:34;101413.56;;;2.03;64.31
73952;BME280;62304;47.662;18.324;2023-02-28T01:32:37;101408.47;;;1.96;63.85
73952;BME280;62304;47.662;18.324;2023-02-28T01:35:40;101410.88;;;1.98;63.71
73952;BME280;62304;47.662;18.324;2023-02-28T01:38:44;101417.13;;;2.03;63.51
73952;BME280;62304;47.662;18.324;2023-02-28T01:41:48;101421.03;;;1.97;63.74
73952;BME280;62304;47.662;18.324;2023-02-28T01:44:59;101421.25;;;1.67;64.57
73952;BME280;62304;47.662;18.324;2023-02-28T01:48:07;101420.97;;;1.69;64.91
73952;BME280;62304;47.662;18.324;2023-02-28T01:51:15;101424.31;;;1.66;64.32
73952;BME280;62304;47.662;18.324;2023-02-28T01:54:26;101421.91;;;1.54;65.10
73952;BME280;62304;47.662;18.324;2023-02-28T01:57:35;101421.38;;;1.57;65.15
73952;BME280;62304;47.662;18.324;2023-02-28T02:00:40;101417.53;;;1.58;64.60
73952;BME280;62304;47.662;18.324;2023-02-28T02:03:45;101414.00;;;1.53;64.30
73952;BME280;62304;47.662;18.324;2023-02-28T02:06:49;101421.06;;;1.59;64.65
73952;BME280;62304;47.662;18.324;2023-02-28T02:10:12;101412.81;;;1.64;64.74
73952;BME280;62304;47.662;18.324;2023-02-28T02:23:23;101420.94;;;1.74;63.71
73952;BME280;62304;47.662;18.324;2023-02-28T02:26:35;101425.94;;;1.67;63.65
73952;BME280;62304;47.662;18.324;2023-02-28T02:40:18;101420.25;;;1.92;63.32
73952;BME280;62304;47.662;18.324;2023-02-28T02:43:30;101426.81;;;1.91;63.31
73952;BME280;62304;47.662;18.324;2023-02-28T02:46:42;101428.25;;;1.83;63.78
73952;BME280;62304;47.662;18.324;2023-02-28T02:49:50;101428.03;;;1.75;63.78
73952;BME280;62304;47.662;18.324;2023-02-28T02:52:57;101433.91;;;1.92;63.37
73952;BME280;62304;47.662;18.324;2023-02-28T02:56:03;101430.34;;;1.96;63.16
73952;BME280;62304;47.662;18.324;2023-02-28T02:59:09;101421.62;;;1.89;63.68
73952;BME280;62304;47.662;18.324;2023-02-28T03:02:16;101431.38;;;2.00;63.38
73952;BME280;62304;47.662;18.324;2023-02-28T03:05:26;101430.34;;;1.96;63.72
73952;BME280;62304;47.662;18.324;2023-02-28T03:08:37;101425.47;;;1.88;64.62
73952;BME280;62304;47.662;18.324;2023-02-28T03:11:41;101434.97;;;1.96;64.37
73952;BME280;62304;47.662;18.324;2023-02-28T03:14:56;101430.78;;;1.75;65.24
73952;BME280;62304;47.662;18.324;2023-02-28T03:21:46;101437.81;;;2.14;64.53
73952;BME280;62304;47.662;18.324;2023-02-28T03:25:12;101433.63;;;1.93;65.43
73952;BME280;62304;47.662;18.324;2023-02-28T03:28:31;101439.94;;;1.94;65.92
73952;BME280;62304;47.662;18.324;2023-02-28T03:31:45;101436.44;;;1.83;66.66
73952;BME280;62304;47.662;18.324;2023-02-28T03:42:08;101449.53;;;1.91;66.76
73952;BME280;62304;47.662;18.324;2023-02-28T03:45:22;101443.81;;;1.88;66.73
73952;BME280;62304;47.662;18.324;2023-02-28T03:48:33;101446.87;;;1.81;67.14
73952;BME280;62304;47.662;18.324;2023-02-28T03:51:41;101447.69;;;1.82;67.04
73952;BME280;62304;47.662;18.324;2023-02-28T03:54:48;101452.31;;;1.86;66.58
73952;BME280;62304;47.662;18.324;2023-02-28T03:58:07;101449.28;;;1.88;66.84
73952;BME280;62304;47.662;18.324;2023-02-28T04:01:25;101448.41;;;1.92;66.34
73952;BME280;62304;47.662;18.324;2023-02-28T04:04:31;101438.66;;;1.81;66.27
73952;BME280;62304;47.662;18.324;2023-02-28T04:07:34;101436.69;;;1.87;65.77
73952;BME280;62304;47.662;18.324;2023-02-28T04:10:37;101442.50;;;1.80;66.04
73952;BME280;62304;47.662;18.324;2023-02-28T04:13:41;101448.75;;;1.86;65.43
73952;BME280;62304;47.662;18.324;2023-02-28T04:16:44;101441.88;;;1.88;65.20
73952;BME280;62304;47.662;18.324;2023-02-28T04:19:47;101445.75;;;1.82;65.20
73952;BME280;62304;47.662;18.324;2023-02-28T04:22:50;101444.22;;;1.71;65.50
73952;BME280;62304;47.662;18.324;2023-02-28T04:25:55;101454.59;;;1.74;65.70
73952;BME280;62304;47.662;18.324;2023-02-28T04:28:59;101439.81;;;1.75;66.35
73952;BME280;62304;47.662;18.324;2023-02-28T04:32:02;101437.13;;;1.70;66.06
73952;BME280;62304;47.662;18.324;2023-02-28T04:35:07;101441.84;;;1.60;66.90
73952;BME280;62304;47.662;18.324;2023-02-28T04:38:13;101441.00;;;1.64;66.91
73952;BME280;62304;47.662;18.324;2023-02-28T04:41:16;101442.03;;;1.73;66.91
73952;BME280;62304;47.662;18.324;2023-02-28T04:44:19;101442.78;;;1.79;66.81
73952;BME280;62304;47.662;18.324;2023-02-28T04:47:23;101445.03;;;1.72;67.04
73952;BME280;62304;47.662;18.324;2023-02-28T04:50:26;101446.06;;;1.76;66.71
73952;BME280;62304;47.662;18.324;2023-02-28T04:53:30;101438.75;;;1.71;66.47
73952;BME280;62304;47.662;18.324;2023-02-28T04:56:33;101448.13;;;1.60;67.10
73952;BME280;62304;47.662;18.324;2023-02-28T04:59:37;101441.31;;;1.58;67.56
73952;BME280;62304;47.662;18.324;2023-02-28T05:02:40;101438.34;;;1.49;67.47
73952;BME280;62304;47.662;18.324;2023-02-28T05:05:43;101447.34;;;1.55;67.25
73952;BME280;62304;47.662;18.324;2023-02-28T05:08:46;101448.13;;;1.60;66.78
73952;BME280;62304;47.662;18.324;2023-02-28T05:11:49;101445.44;;;1.50;66.94
73952;BME280;62304;47.662;18.324;2023-02-28T05:14:52;101453.66;;;1.50;67.04
73952;BME280;62304;47.662;18.324;2023-02-28T05:17:55;101453.75;;;1.40;66.93
73952;BME280;62304;47.662;18.324;2023-02-28T05:20:59;101453.44;;;1.42;66.86
73952;BME280;62304;47.662;18.324;2023-02-28T05:24:08;101460.31;;;1.34;66.74
73952;BME280;62304;47.662;18.324;2023-02-28T05:27:11;101464.97;;;1.34;67.01
73952;BME280;62304;47.662;18.324;2023-02-28T05:30:15;101457.06;;;1.32;67.26
73952;BME280;62304;47.662;18.324;2023-02-28T05:33:18;101461.09;;;1.40;67.11
73952;BME280;62304;47.662;18.324;2023-02-28T05:36:21;101465.28;;;1.27;67.57
73952;BME280;62304;47.662;18.324;2023-02-28T05:39:24;101474.59;;;1.21;67.52
73952;BME280;62304;47.662;18.324;2023-02-28T05:42:27;101484.47;;;1.12;68.13
73952;BME280;62304;47.662;18.324;2023-02-28T05:45:30;101482.84;;;1.11;68.09
73952;BME280;62304;47.662;18.324;2023-02-28T05:48:35;101486.41;;;1.07;68.79
73952;BME280;62304;47.662;18.324;2023-02-28T05:51:38;101480.22;;;0.91;70.07
73952;BME280;62304;47.662;18.324;2023-02-28T05:54:42;101484.56;;;0.97;70.18
73952;BME280;62304;47.662;18.324;2023-02-28T05:57:45;101476.91;;;0.94;70.29
73952;BME280;62304;47.662;18.324;2023-02-28T06:00:49;101490.81;;;0.98;70.70
73952;BME280;62304;47.662;18.324;2023-02-28T06:03:52;101491.37;;;1.00;70.73
73952;BME280;62304;47.662;18.324;2023-02-28T06:06:54;101494.66;;;0.97;70.52
73952;BME280;62304;47.662;18.324;2023-02-28T06:10:00;101505.03;;;1.00;70.70
73952;BME280;62304;47.662;18.324;2023-02-28T06:13:04;101500.38;;;0.95;70.38
73952;BME280;62304;47.662;18.324;2023-02-28T06:16:10;101504.25;;;0.84;70.92
73952;BME280;62304;47.662;18.324;2023-02-28T06:19:13;101500.41;;;0.90;70.23
73952;BME280;62304;47.662;18.324;2023-02-28T06:22:17;101503.69;;;0.97;70.14
73952;BME280;62304;47.662;18.324;2023-02-28T06:25:20;101503.09;;;1.00;69.70
73952;BME280;62304;47.662;18.324;2023-02-28T06:28:25;101495.47;;;1.02;69.37
73952;BME280;62304;47.662;18.324;2023-02-28T06:31:28;101503.91;;;1.06;69.53
73952;BME280;62304;47.662;18.324;2023-02-28T06:34:32;101505.28;;;1.08;69.07
73952;BME280;62304;47.662;18.324;2023-02-28T06:37:36;101506.38;;;1.07;69.04
73952;BME280;62304;47.662;18.324;2023-02-28T06:40:43;101506.66;;;1.06;69.25
73952;BME280;62304;47.662;18.324;2023-02-28T06:43:46;101512.06;;;1.16;68.83
73952;BME280;62304;47.662;18.324;2023-02-28T06:46:49;101512.06;;;1.16;68.73
73952;BME280;62304;47.662;18.324;2023-02-28T06:49:52;101504.37;;;1.23;69.00
73952;BME280;62304;47.662;18.324;2023-02-28T06:52:55;101508.44;;;1.30;69.42
73952;BME280;62304;47.662;18.324;2023-02-28T06:55:58;101514.75;;;1.21;70.87
73952;BME280;62304;47.662;18.324;2023-02-28T06:59:01;101513.34;;;1.33;70.29
73952;BME280;62304;47.662;18.324;2023-02-28T07:02:05;101508.44;;;1.35;70.26
73952;BME280;62304;47.662;18.324;2023-02-28T07:05:10;101514.13;;;1.44;70.99
73952;BME280;62304;47.662;18.324;2023-02-28T07:08:13;101523.09;;;1.49;70.95
73952;BME280;62304;47.662;18.324;2023-02-28T07:11:16;101526.66;;;1.50;71.44
73952;BME280;62304;47.662;18.324;2023-02-28T07:14:20;101528.50;;;1.59;71.03
73952;BME280;62304;47.662;18.324;2023-02-28T07:17:23;101530.12;;;1.65;71.44
73952;BME280;62304;47.662;18.324;2023-02-28T07:20:25;101531.38;;;1.83;71.24
73952;BME280;62304;47.662;18.324;2023-02-28T07:23:29;101522.81;;;1.94;70.95
73952;BME280;62304;47.662;18.324;2023-02-28T07:26:31;101537.59;;;1.93;70.91
73952;BME280;62304;47.662;18.324;2023-02-28T07:29:36;101532.59;;;2.00;69.95
73952;BME280;62304;47.662;18.324;2023-02-28T07:32:40;101542.19;;;1.98;69.94
73952;BME280;62304;47.662;18.324;2023-02-28T07:35:46;101540.38;;;1.83;70.24
73952;BME280;62304;47.662;18.324;2023-02-28T07:38:49;101548.84;;;1.87;70.52
73952;BME280;62304;47.662;18.324;2023-02-28T07:41:52;101550.38;;;2.03;69.71
73952;BME280;62304;47.662;18.324;2023-02-28T07:44:59;101542.69;;;2.10;69.80
73952;BME280;62304;47.662;18.324;2023-02-28T07:48:03;101549.88;;;2.34;68.91
73952;BME280;62304;47.662;18.324;2023-02-28T07:51:06;101545.41;;;2.43;68.05
73952;BME280;62304;47.662;18.324;2023-02-28T07:54:09;101545.41;;;2.43;67.60
73952;BME280;62304;47.662;18.324;2023-02-28T07:57:12;101539.13;;;2.43;66.87
73952;BME280;62304;47.662;18.324;2023-02-28T08:00:15;101541.47;;;2.54;66.89
73952;BME280;62304;47.662;18.324;2023-02-28T08:03:20;101542.16;;;2.70;66.54
73952;BME280;62304;47.662;18.324;2023-02-28T08:06:24;101543.00;;;2.65;66.46
73952;BME280;62304;47.662;18.324;2023-02-28T08:09:27;101538.06;;;2.67;64.86
73952;BME280;62304;47.662;18.324;2023-02-28T08:12:32;101535.78;;;2.74;63.71
73952;BME280;62304;47.662;18.324;2023-02-28T08:15:35;101543.41;;;3.06;64.25
73952;BME280;62304;47.662;18.324;2023-02-28T08:18:38;101541.87;;;3.18;63.59
73952;BME280;62304;47.662;18.324;2023-02-28T08:21:42;101541.75;;;3.28;63.59
73952;BME280;62304;47.662;18.324;2023-02-28T08:24:44;101548.41;;;3.22;62.80
73952;BME280;62304;47.662;18.324;2023-02-28T08:27:50;101540.72;;;3.24;62.36
73952;BME280;62304;47.662;18.324;2023-02-28T08:30:54;101546.88;;;3.35;61.70
73952;BME280;62304;47.662;18.324;2023-02-28T08:33:57;101547.56;;;3.45;60.74
73952;BME280;62304;47.662;18.324;2023-02-28T08:37:01;101540.69;;;3.48;58.23
73952;BME280;62304;47.662;18.324;2023-02-28T08:40:05;101540.62;;;3.71;58.37
73952;BME280;62304;47.662;18.324;2023-02-28T08:43:08;101539.16;;;3.97;58.27
73952;BME280;62304;47.662;18.324;2023-02-28T08:46:12;101546.53;;;4.34;57.62
73952;BME280;62304;47.662;18.324;2023-02-28T08:49:17;101547.41;;;4.48;56.45
73952;BME280;62304;47.662;18.324;2023-02-28T08:52:21;101540.91;;;4.57;54.87
73952;BME280;62304;47.662;18.324;2023-02-28T08:55:24;101546.16;;;4.86;53.87
73952;BME280;62304;47.662;18.324;2023-02-28T08:58:28;101539.63;;;4.82;53.32
73952;BME280;62304;47.662;18.324;2023-02-28T09:01:31;101547.44;;;5.20;51.91
73952;BME280;62304;47.662;18.324;2023-02-28T09:04:35;101533.53;;;5.52;52.02
73952;BME280;62304;47.662;18.324;2023-02-28T09:07:37;101538.87;;;6.64;51.46
73952;BME280;62304;47.662;18.324;2023-02-28T09:10:40;101534.09;;;7.56;48.96
73952;BME280;62304;47.662;18.324;2023-02-28T09:13:43;101529.66;;;8.91;46.72
73952;BME280;62304;47.662;18.324;2023-02-28T09:16:46;101521.59;;;10.22;44.39
73952;BME280;62304;47.662;18.324;2023-02-28T09:19:49;101520.06;;;11.70;41.45
73952;BME280;62304;47.662;18.324;2023-02-28T09:22:53;101512.75;;;11.66;40.12
73952;BME280;62304;47.662;18.324;2023-02-28T09:25:56;101523.62;;;10.66;38.73
73952;BME280;62304;47.662;18.324;2023-02-28T09:29:00;101515.66;;;10.32;37.74
73952;BME280;62304;47.662;18.324;2023-02-28T09:32:03;101516.94;;;10.14;38.82
73952;BME280;62304;47.662;18.324;2023-02-28T09:35:08;101518.84;;;9.93;38.12
73952;BME280;62304;47.662;18.324;2023-02-28T09:38:16;101516.78;;;10.31;38.53
73952;BME280;62304;47.662;18.324;2023-02-28T09:41:22;101512.56;;;10.46;37.63
73952;BME280;62304;47.662;18.324;2023-02-28T09:44:36;101525.81;;;11.05;37.88
73952;BME280;62304;47.662;18.324;2023-02-28T09:47:43;101528.16;;;11.75;35.79
73952;BME280;62304;47.662;18.324;2023-02-28T09:50:51;101513.88;;;11.89;36.66
73952;BME280;62304;47.662;18.324;2023-02-28T09:53:55;101520.50;;;11.36;34.95
73952;BME280;62304;47.662;18.324;2023-02-28T10:00:32;101515.84;;;11.88;34.48
73952;BME280;62304;47.662;18.324;2023-02-28T10:03:43;101517.03;;;11.51;34.55
73952;BME280;62304;47.662;18.324;2023-02-28T10:06:50;101517.22;;;11.94;33.19
73952;BME280;62304;47.662;18.324;2023-02-28T10:09:57;101509.81;;;11.98;32.62
73952;BME280;62304;47.662;18.324;2023-02-28T10:13:05;101508.97;;;12.10;33.24
73952;BME280;62304;47.662;18.324;2023-02-28T10:16:40;101516.25;;;12.14;33.11
73952;BME280;62304;47.662;18.324;2023-02-28T10:23:25;101514.91;;;13.87;30.63
73952;BME280;62304;47.662;18.324;2023-02-28T10:26:32;101505.34;;;13.88;30.04
73952;BME280;62304;47.662;18.324;2023-02-28T10:29:35;101505.91;;;13.13;29.94
73952;BME280;62304;47.662;18.324;2023-02-28T10:32:39;101503.19;;;14.16;28.84
73952;BME280;62304;47.662;18.324;2023-02-28T10:35:42;101488.59;;;14.42;29.52
73952;BME280;62304;47.662;18.324;2023-02-28T10:38:47;101480.53;;;14.56;29.35
73952;BME280;62304;47.662;18.324;2023-02-28T10:41:50;101499.50;;;13.59;29.13
73952;BME280;62304;47.662;18.324;2023-02-28T10:51:18;101469.84;;;14.04;28.81
73952;BME280;62304;47.662;18.324;2023-02-28T10:54:31;101461.41;;;14.01;28.83
73952;BME280;62304;47.662;18.324;2023-02-28T10:57:37;101465.88;;;14.05;28.35
73952;BME280;62304;47.662;18.324;2023-02-28T11:00:40;101458.06;;;14.71;28.38
73952;BME280;62304;47.662;18.324;2023-02-28T11:03:43;101458.25;;;15.04;27.87
73952;BME280;62304;47.662;18.324;2023-02-28T11:06:47;101456.41;;;15.60;26.36
73952;BME280;62304;47.662;18.324;2023-02-28T11:09:59;101447.78;;;13.11;28.00
73952;BME280;62304;47.662;18.324;2023-02-28T11:13:02;101445.97;;;14.86;27.53
73952;BME280;62304;47.662;18.324;2023-02-28T11:16:09;101444.69;;;14.80;26.58
73952;BME280;62304;47.662;18.324;2023-02-28T11:19:40;101430.75;;;14.20;26.80
73952;BME280;62304;47.662;18.324;2023-02-28T11:22:47;101444.53;;;14.13;27.45
73952;BME280;62304;47.662;18.324;2023-02-28T11:25:52;101433.00;;;14.97;27.25
73952;BME280;62304;47.662;18.324;2023-02-28T11:32:21;101444.34;;;13.33;28.49
73952;BME280;62304;47.662;18.324;2023-02-28T11:35:33;101441.19;;;12.14;29.23
73952;BME280;62304;47.662;18.324;2023-02-28T11:38:39;101444.50;;;12.47;28.74
73952;BME280;62304;47.662;18.324;2023-02-28T11:48:52;101428.31;;;13.46;27.75
73952;BME280;62304;47.662;18.324;2023-02-28T12:03:10;101422.72;;;14.56;27.42
73952;BME280;62304;47.662;18.324;2023-02-28T12:06:18;101422.78;;;13.30;27.57
73952;BME280;62304;47.662;18.324;2023-02-28T12:26:36;101397.25;;;14.01;27.71
73952;BME280;62304;47.662;18.324;2023-02-28T12:29:50;101388.94;;;14.87;25.51
73952;BME280;62304;47.662;18.324;2023-02-28T12:33:05;101379.06;;;15.19;26.39
73952;BME280;62304;47.662;18.324;2023-02-28T12:36:11;101378.34;;;15.48;25.48
73952;BME280;62304;47.662;18.324;2023-02-28T12:39:29;101373.97;;;15.80;26.02
73952;BME280;62304;47.662;18.324;2023-02-28T12:43:03;101374.94;;;15.95;25.93
73952;BME280;62304;47.662;18.324;2023-02-28T12:46:21;101360.03;;;15.54;26.06
73952;BME280;62304;47.662;18.324;2023-02-28T12:49:45;101371.47;;;15.42;25.60
73952;BME280;62304;47.662;18.324;2023-02-28T12:53:06;101369.25;;;15.84;26.17
73952;BME280;62304;47.662;18.324;2023-02-28T12:56:33;101357.44;;;15.39;25.18
73952;BME280;62304;47.662;18.324;2023-02-28T12:59:54;101355.22;;;16.50;25.15
73952;BME280;62304;47.662;18.324;2023-02-28T13:09:56;101343.28;;;15.87;25.25
73952;BME280;62304;47.662;18.324;2023-02-28T13:13:02;101348.28;;;13.84;27.12
73952;BME280;62304;47.662;18.324;2023-02-28T13:16:08;101348.22;;;14.86;26.38
73952;BME280;62304;47.662;18.324;2023-02-28T13:19:17;101341.50;;;14.91;27.04
73952;BME280;62304;47.662;18.324;2023-02-28T13:38:23;101322.63;;;13.37;29.10
73952;BME280;62304;47.662;18.324;2023-02-28T13:48:26;101316.47;;;13.47;28.67
73952;BME280;62304;47.662;18.324;2023-02-28T13:51:48;101323.62;;;12.17;29.83
73952;BME280;62304;47.662;18.324;2023-02-28T13:55:02;101320.69;;;12.10;30.70
73952;BME280;62304;47.662;18.324;2023-02-28T14:05:27;101310.53;;;10.84;32.80
73952;BME280;62304;47.662;18.324;2023-02-28T14:08:33;101322.34;;;10.57;33.16
73952;BME280;62304;47.662;18.324;2023-02-28T14:11:38;101315.66;;;9.89;34.78
73952;BME280;62304;47.662;18.324;2023-02-28T14:14:53;101316.53;;;9.28;35.46
73952;BME280;62304;47.662;18.324;2023-02-28T14:17:57;101313.69;;;9.16;35.88
73952;BME280;62304;47.662;18.324;2023-02-28T14:21:21;101314.87;;;8.86;36.73
73952;BME280;62304;47.662;18.324;2023-02-28T14:31:13;101311.81;;;8.50;37.13
73952;BME280;62304;47.662;18.324;2023-02-28T14:37:37;101311.66;;;8.09;39.11
73952;BME280;62304;47.662;18.324;2023-02-28T14:40:42;101313.12;;;8.07;39.08
73952;BME280;62304;47.662;18.324;2023-02-28T14:43:51;101304.25;;;8.39;39.44
73952;BME280;62304;47.662;18.324;2023-02-28T14:47:01;101298.81;;;8.22;39.63
73952;BME280;62304;47.662;18.324;2023-02-28T14:50:21;101307.66;;;8.36;39.10
73952;BME280;62304;47.662;18.324;2023-02-28T14:53:28;101304.13;;;8.35;38.59
73952;BME280;62304;47.662;18.324;2023-02-28T14:56:37;101309.97;;;7.79;39.87
73952;BME280;62304;47.662;18.324;2023-02-28T14:59:40;101306.69;;;7.86;39.21
73952;BME280;62304;47.662;18.324;2023-02-28T15:02:44;101311.25;;;7.82;39.93
73952;BME280;62304;47.662;18.324;2023-02-28T15:05:55;101307.41;;;7.66;39.76
73952;BME280;62304;47.662;18.324;2023-02-28T15:09:08;101307.22;;;7.54;41.06
73952;BME280;62304;47.662;18.324;2023-02-28T15:12:15;101302.53;;;7.46;40.81
73952;BME280;62304;47.662;18.324;2023-02-28T15:15:18;101306.44;;;7.28;41.11
73952;BME280;62304;47.662;18.324;2023-02-28T15:21:49;101309.06;;;7.24;41.74
73952;BME280;62304;47.662;18.324;2023-02-28T15:24:53;101312.75;;;7.11;41.94
73952;BME280;62304;47.662;18.324;2023-02-28T15:27:57;101306.28;;;7.07;41.75
73952;BME280;62304;47.662;18.324;2023-02-28T15:31:02;101304.94;;;6.79;42.58
73952;BME280;62304;47.662;18.324;2023-02-28T15:34:12;101311.09;;;6.68;43.09
73952;BME280;62304;47.662;18.324;2023-02-28T15:40:57;101301.03;;;6.72;43.03
73952;BME280;62304;47.662;18.324;2023-02-28T15:47:29;101303.56;;;6.51;43.48
73952;BME280;62304;47.662;18.324;2023-02-28T15:50:32;101303.72;;;6.46;44.36
73952;BME280;62304;47.662;18.324;2023-02-28T15:57:23;101300.91;;;6.29;44.41
73952;BME280;62304;47.662;18.324;2023-02-28T16:00:31;101309.50;;;6.28;44.87
73952;BME280;62304;47.662;18.324;2023-02-28T16:03:43;101303.09;;;6.10;44.41
73952;BME280;62304;47.662;18.324;2023-02-28T16:07:01;101300.97;;;6.07;45.60
73952;BME280;62304;47.662;18.324;2023-02-28T16:10:06;101310.97;;;5.95;45.77
73952;BME280;62304;47.662;18.324;2023-02-28T16:13:11;101312.03;;;5.85;46.35
73952;BME280;62304;47.662;18.324;2023-02-28T16:16:21;101312.41;;;5.70;46.48
73952;BME280;62304;47.662;18.324;2023-02-28T16:19:25;101315.53;;;5.55;46.63
73952;BME280;62304;47.662;18.324;2023-02-28T16:22:28;101306.09;;;5.48;47.51
73952;BME280;62304;47.662;18.324;2023-02-28T16:25:42;101316.56;;;5.37;47.89
73952;BME280;62304;47.662;18.324;2023-02-28T16:28:47;101314.34;;;5.26;47.97
73952;BME280;62304;47.662;18.324;2023-02-28T16:31:50;101323.97;;;5.15;47.83
73952;BME280;62304;47.662;18.324;2023-02-28T16:34:53;101316.88;;;5.00;48.61
73952;BME280;62304;47.662;18.324;2023-02-28T16:37:56;101319.06;;;4.90;49.47
73952;BME280;62304;47.662;18.324;2023-02-28T16:40:59;101321.56;;;4.86;49.02
73952;BME280;62304;47.662;18.324;2023-02-28T16:44:10;101318.56;;;4.74;50.32
73952;BME280;62304;47.662;18.324;2023-02-28T16:47:16;101322.34;;;4.65;50.83
73952;BME280;62304;47.662;18.324;2023-02-28T16:50:24;101328.13;;;4.63;50.80
73952;BME280;62304;47.662;18.324;2023-02-28T16:53:28;101325.91;;;4.65;50.76
73952;BME280;62304;47.662;18.324;2023-02-28T16:56:31;101334.47;;;4.64;50.70
73952;BME280;62304;47.662;18.324;2023-02-28T16:59:35;101351.13;;;4.67;50.95
73952;BME280;62304;47.662;18.324;2023-02-28T17:02:38;101351.25;;;4.62;51.35
73952;BME280;62304;47.662;18.324;2023-02-28T17:05:44;101343.94;;;4.58;51.80
73952;BME280;62304;47.662;18.324;2023-02-28T17:08:51;101341.38;;;4.48;52.57
73952;BME280;62304;47.662;18.324;2023-02-28T17:11:55;101345.25;;;4.47;52.99
73952;BME280;62304;47.662;18.324;2023-02-28T17:14:59;101348.28;;;4.59;52.71
73952;BME280;62304;47.662;18.324;2023-02-28T17:18:03;101345.00;;;4.70;52.18
73952;BME280;62304;47.662;18.324;2023-02-28T17:21:15;101351.97;;;4.68;52.38
73952;BME280;62304;47.662;18.324;2023-02-28T17:24:19;101350.72;;;4.74;52.22
73952;BME280;62304;47.662;18.324;2023-02-28T17:27:32;101346.78;;;4.66;52.91
73952;BME280;62304;47.662;18.324;2023-02-28T17:30:36;101352.16;;;4.71;52.56
73952;BME280;62304;47.662;18.324;2023-02-28T17:33:39;101356.25;;;4.60;53.36
73952;BME280;62304;47.662;18.324;2023-02-28T17:36:44;101354.63;;;4.46;53.64
73952;BME280;62304;47.662;18.324;2023-02-28T17:39:49;101356.22;;;4.33;54.31
73952;BME280;62304;47.662;18.324;2023-02-28T17:42:52;101367.81;;;4.30;54.33
73952;BME280;62304;47.662;18.324;2023-02-28T17:45:58;101373.31;;;4.30;55.05
73952;BME280;62304;47.662;18.324;2023-02-28T17:49:01;101364.38;;;4.38;55.08
73952;BME280;62304;47.662;18.324;2023-02-28T17:52:05;101375.13;;;4.48;55.58
73952;BME280;62304;47.662;18.324;2023-02-28T17:55:11;101375.47;;;4.60;54.24
73952;BME280;62304;47.662;18.324;2023-02-28T17:58:14;101378.31;;;4.69;54.20
73952;BME280;62304;47.662;18.324;2023-02-28T18:01:20;101375.97;;;4.62;53.40
73952;BME280;62304;47.662;18.324;2023-02-28T18:04:25;101379.13;;;4.56;53.44
73952;BME280;62304;47.662;18.324;2023-02-28T18:07:30;101380.25;;;4.55;54.57
73952;BME280;62304;47.662;18.324;2023-02-28T18:10:34;101377.69;;;4.58;55.32
73952;BME280;62304;47.662;18.324;2023-02-28T18:13:38;101382.19;;;4.54;55.17
73952;BME280;62304;47.662;18.324;2023-02-28T18:16:43;101389.41;;;4.64;54.88
73952;BME280;62304;47.662;18.324;2023-02-28T18:19:46;101384.94;;;4.68;54.59
73952;BME280;62304;47.662;18.324;2023-02-28T18:22:51;101387.97;;;4.66;55.08
73952;BME280;62304;47.662;18.324;2023-02-28T18:25:58;101382.59;;;4.48;56.38
73952;BME280;62304;47.662;18.324;2023-02-28T18:29:02;101378.12;;;4.65;55.23
73952;BME280;62304;47.662;18.324;2023-02-28T18:32:06;101384.81;;;4.59;55.05
73952;BME280;62304;47.662;18.324;2023-02-28T18:35:10;101378.12;;;4.65;55.88